createdAt,value
2019-03-10T00:00:51.215Z,5.54
2019-03-10T00:01:51.208Z,5.46
2019-03-10T00:02:51.202Z,5.41
2019-03-10T00:03:51.189Z,5.48
2019-03-10T00:04:51.179Z,5.41
2019-03-10T00:05:51.182Z,5.41
2019-03-10T00:06:51.165Z,5.44
2019-03-10T00:07:51.152Z,5.48
2019-03-10T00:08:51.146Z,5.43
2019-03-10T00:09:51.136Z,5.48
2019-03-10T00:10:51.123Z,5.51
2019-03-10T00:11:51.122Z,5.48
2019-03-10T00:12:51.107Z,5.53
2019-03-10T00:13:51.095Z,5.43
2019-03-10T00:14:51.092Z,5.48
2019-03-10T00:15:51.085Z,5.48
2019-03-10T00:16:51.071Z,5.38
2019-03-10T00:17:51.061Z,5.39
2019-03-10T00:18:51.051Z,5.39
2019-03-10T00:19:51.042Z,5.43
2019-03-10T00:20:51.033Z,5.51
2019-03-10T00:21:51.025Z,5.48
2019-03-10T00:22:51.017Z,5.39
2019-03-10T00:23:51.010Z,5.33
2019-03-10T00:24:50.999Z,5.44
2019-03-10T00:25:50.988Z,5.39
2019-03-10T00:26:50.977Z,5.43
2019-03-10T00:27:50.969Z,5.36
2019-03-10T00:28:50.958Z,5.36
2019-03-10T00:29:50.958Z,5.35
2019-03-10T00:30:50.951Z,5.38
2019-03-10T00:31:50.931Z,5.36
2019-03-10T00:32:50.929Z,5.32
2019-03-10T00:33:50.913Z,5.43
2019-03-10T00:34:50.906Z,5.39
2019-03-10T00:35:50.902Z,5.47
2019-03-10T00:36:50.885Z,5.36
2019-03-10T00:37:50.876Z,5.46
2019-03-10T00:38:50.868Z,5.39
2019-03-10T00:39:50.860Z,5.38
2019-03-10T00:40:50.850Z,5.46
2019-03-10T00:41:50.837Z,5.36
2019-03-10T00:42:50.827Z,5.48
2019-03-10T00:43:50.827Z,5.47
2019-03-10T00:44:50.811Z,5.35
2019-03-10T00:45:50.801Z,5.46
2019-03-10T00:46:50.793Z,5.43
2019-03-10T00:47:50.796Z,5.41
2019-03-10T00:48:50.775Z,5.48
2019-03-10T00:49:50.766Z,5.44
2019-03-10T00:50:50.756Z,5.46
2019-03-10T00:51:50.745Z,5.48
2019-03-10T00:52:50.736Z,5.50
2019-03-10T00:53:50.726Z,5.43
2019-03-10T00:54:50.719Z,5.51
2019-03-10T00:55:50.719Z,5.43
2019-03-10T00:56:50.699Z,5.41
2019-03-10T00:57:50.693Z,5.41
2019-03-10T00:58:50.683Z,5.41
2019-03-10T00:59:50.673Z,5.36
2019-03-10T01:00:50.666Z,5.33
2019-03-10T01:01:50.655Z,5.36
2019-03-10T01:02:50.646Z,5.38
2019-03-10T01:03:50.638Z,5.38
2019-03-10T01:04:50.632Z,5.39
2019-03-10T01:05:50.613Z,5.30
2019-03-10T01:06:50.607Z,5.29
2019-03-10T01:07:50.599Z,5.32
2019-03-10T01:08:50.590Z,5.33
2019-03-10T01:09:50.579Z,5.23
2019-03-10T01:10:50.568Z,5.35
2019-03-10T01:11:50.562Z,5.29
2019-03-10T01:12:50.551Z,5.25
2019-03-10T01:13:50.542Z,5.25
2019-03-10T01:14:50.536Z,5.26
2019-03-10T01:15:50.527Z,5.26
2019-03-10T01:16:50.524Z,5.23
2019-03-10T01:17:50.505Z,5.28
2019-03-10T01:18:50.496Z,5.28
2019-03-10T01:19:50.485Z,5.20
2019-03-10T01:20:50.509Z,5.18
2019-03-10T01:21:50.465Z,5.10
2019-03-10T01:22:50.467Z,5.15
2019-03-10T01:23:50.450Z,5.11
2019-03-10T01:24:50.443Z,5.18
2019-03-10T01:25:50.434Z,5.11
2019-03-10T01:26:50.423Z,5.08
2019-03-10T01:27:50.414Z,5.18
2019-03-10T01:28:50.402Z,5.10
2019-03-10T01:29:50.392Z,5.14
2019-03-10T01:30:50.382Z,5.11
2019-03-10T01:31:50.372Z,5.14
2019-03-10T01:32:50.367Z,5.12
2019-03-10T01:33:50.358Z,5.11
2019-03-10T01:34:50.349Z,5.14
2019-03-10T01:35:50.338Z,5.18
2019-03-10T01:36:50.328Z,5.17
2019-03-10T01:37:50.316Z,5.15
2019-03-10T01:38:50.310Z,5.17
2019-03-10T01:39:50.296Z,5.10
2019-03-10T01:40:50.290Z,5.18
2019-03-10T01:41:50.283Z,5.21
2019-03-10T01:42:50.270Z,5.15
2019-03-10T01:43:50.261Z,5.21
2019-03-10T01:44:50.254Z,5.20
2019-03-10T01:45:50.243Z,5.18
2019-03-10T01:46:50.236Z,5.17
2019-03-10T01:47:50.225Z,5.10
2019-03-10T01:48:50.212Z,5.12
2019-03-10T01:49:50.209Z,5.12
2019-03-10T01:50:50.196Z,5.15
2019-03-10T01:51:50.188Z,5.07
2019-03-10T01:52:50.180Z,5.12
2019-03-10T01:53:50.206Z,5.10
2019-03-10T01:54:50.157Z,4.99
2019-03-10T01:55:50.147Z,5.07
2019-03-10T01:56:50.138Z,5.02
2019-03-10T01:57:50.131Z,5.04
2019-03-10T01:58:50.118Z,5.11
2019-03-10T01:59:50.112Z,5.14
2019-03-10T02:00:50.101Z,5.08
2019-03-10T02:01:50.095Z,5.11
2019-03-10T02:02:50.090Z,5.11
2019-03-10T02:03:50.074Z,5.08
2019-03-10T02:04:50.065Z,5.10
2019-03-10T02:05:50.062Z,5.05
2019-03-10T02:06:50.043Z,5.12
2019-03-10T02:07:50.035Z,5.08
2019-03-10T02:08:50.024Z,5.12
2019-03-10T02:09:50.015Z,5.08
2019-03-10T02:10:50.006Z,5.14
2019-03-10T02:11:49.999Z,4.99
2019-03-10T02:12:49.990Z,5.00
2019-03-10T02:13:49.981Z,5.12
2019-03-10T02:14:49.975Z,5.10
2019-03-10T02:15:49.962Z,5.10
2019-03-10T02:16:49.952Z,5.11
2019-03-10T02:17:49.941Z,5.11
2019-03-10T02:18:49.936Z,5.08
2019-03-10T02:19:49.925Z,5.00
2019-03-10T02:20:49.902Z,4.96
2019-03-10T02:21:49.905Z,4.99
2019-03-10T02:22:49.894Z,4.93
2019-03-10T02:23:49.884Z,4.96
2019-03-10T02:24:49.873Z,4.99
2019-03-10T02:25:49.865Z,4.96
2019-03-10T02:26:49.859Z,4.99
2019-03-10T02:27:49.850Z,5.00
2019-03-10T02:28:49.844Z,4.99
2019-03-10T02:29:49.828Z,5.02
2019-03-10T02:30:49.836Z,4.97
2019-03-10T02:31:49.820Z,5.02
2019-03-10T02:32:49.818Z,5.00
2019-03-10T02:33:49.793Z,5.07
2019-03-10T02:34:49.782Z,4.97
2019-03-10T02:35:49.773Z,5.02
2019-03-10T02:36:49.764Z,5.02
2019-03-10T02:37:49.755Z,5.00
2019-03-10T02:38:49.743Z,4.99
2019-03-10T02:39:49.734Z,4.96
2019-03-10T02:40:49.727Z,4.87
2019-03-10T02:41:49.717Z,4.99
2019-03-10T02:42:49.706Z,5.00
2019-03-10T02:43:49.699Z,5.00
2019-03-10T02:44:49.687Z,4.97
2019-03-10T02:45:49.677Z,5.04
2019-03-10T02:46:49.668Z,5.02
2019-03-10T02:47:49.659Z,5.10
2019-03-10T02:48:49.649Z,5.00
2019-03-10T02:49:49.641Z,4.94
2019-03-10T02:50:49.654Z,4.99
2019-03-10T02:51:49.619Z,5.00
2019-03-10T02:52:49.613Z,5.15
2019-03-10T02:53:49.593Z,5.08
2019-03-10T02:54:49.589Z,5.08
2019-03-10T02:55:49.582Z,5.07
2019-03-10T02:56:49.574Z,5.07
2019-03-10T02:57:49.564Z,5.12
2019-03-10T02:58:49.557Z,5.12
2019-03-10T02:59:49.545Z,5.08
2019-03-10T03:00:49.534Z,5.00
2019-03-10T03:01:49.531Z,5.14
2019-03-10T03:02:49.516Z,5.05
2019-03-10T03:03:49.525Z,5.05
2019-03-10T03:04:49.497Z,5.08
2019-03-10T03:05:49.486Z,5.07
2019-03-10T03:06:49.479Z,5.04
2019-03-10T03:07:49.468Z,5.04
2019-03-10T03:08:49.457Z,4.97
2019-03-10T03:09:49.447Z,4.99
2019-03-10T03:10:49.442Z,4.90
2019-03-10T03:11:49.435Z,4.93
2019-03-10T03:12:49.420Z,4.96
2019-03-10T03:13:49.414Z,4.94
2019-03-10T03:14:49.402Z,4.86
2019-03-10T03:15:49.398Z,4.93
2019-03-10T03:16:52.615Z,4.93
2019-03-10T03:17:49.373Z,4.87
2019-03-10T03:18:49.366Z,4.93
2019-03-10T03:19:49.357Z,4.99
2019-03-10T03:20:49.346Z,5.00
2019-03-10T03:21:49.337Z,4.99
2019-03-10T03:22:49.327Z,5.02
2019-03-10T03:23:49.318Z,5.04
2019-03-10T03:24:49.309Z,5.00
2019-03-10T03:25:49.300Z,4.99
2019-03-10T03:26:49.292Z,5.00
2019-03-10T03:27:49.295Z,4.99
2019-03-10T03:28:49.271Z,5.00
2019-03-10T03:29:49.263Z,4.99
2019-03-10T03:30:49.254Z,4.97
2019-03-10T03:31:49.244Z,4.99
2019-03-10T03:32:49.234Z,4.96
2019-03-10T03:33:49.233Z,5.00
2019-03-10T03:34:49.215Z,4.93
2019-03-10T03:35:49.218Z,5.00
2019-03-10T03:36:49.196Z,4.99
2019-03-10T03:37:49.185Z,5.02
2019-03-10T03:38:49.180Z,5.04
2019-03-10T03:39:49.171Z,5.00
2019-03-10T03:40:49.157Z,5.00
2019-03-10T03:41:49.151Z,4.97
2019-03-10T03:42:49.143Z,5.02
2019-03-10T03:43:49.129Z,5.02
2019-03-10T03:44:49.120Z,4.97
2019-03-10T03:45:49.110Z,5.00
2019-03-10T03:46:49.101Z,5.02
2019-03-10T03:47:49.141Z,5.02
2019-03-10T03:48:49.079Z,5.08
2019-03-10T03:49:49.071Z,5.14
2019-03-10T03:50:49.063Z,5.10
2019-03-10T03:51:49.052Z,5.02
2019-03-10T03:52:49.060Z,5.04
2019-03-10T03:53:49.039Z,5.04
2019-03-10T03:54:49.025Z,5.05
2019-03-10T03:55:49.023Z,5.02
2019-03-10T03:56:49.009Z,5.00
2019-03-10T03:57:49.000Z,5.04
2019-03-10T03:58:48.986Z,4.96
2019-03-10T03:59:48.988Z,4.92
2019-03-10T04:00:48.972Z,5.00
2019-03-10T04:01:48.965Z,4.90
2019-03-10T04:02:48.969Z,4.92
2019-03-10T04:03:49.045Z,4.94
2019-03-10T04:04:48.929Z,4.89
2019-03-10T04:05:48.925Z,4.87
2019-03-10T04:06:48.911Z,4.92
2019-03-10T04:07:48.935Z,4.86
2019-03-10T04:08:48.917Z,4.87
2019-03-10T04:09:48.950Z,4.92
2019-03-10T04:10:48.873Z,5.00
2019-03-10T04:11:48.865Z,4.89
2019-03-10T04:12:48.854Z,4.84
2019-03-10T04:13:48.846Z,4.86
2019-03-10T04:14:48.835Z,4.84
2019-03-10T04:15:48.829Z,4.86
2019-03-10T04:16:48.832Z,4.84
2019-03-10T04:17:48.805Z,4.87
2019-03-10T04:18:48.799Z,4.90
2019-03-10T04:19:48.791Z,4.86
2019-03-10T04:20:48.787Z,4.87
2019-03-10T04:21:48.771Z,4.86
2019-03-10T04:22:48.757Z,5.02
2019-03-10T04:23:48.751Z,4.97
2019-03-10T04:24:48.739Z,4.96
2019-03-10T04:25:48.741Z,5.02
2019-03-10T04:26:48.722Z,5.11
2019-03-10T04:27:48.713Z,5.18
2019-03-10T04:28:48.699Z,5.15
2019-03-10T04:29:48.691Z,5.17
2019-03-10T04:30:48.684Z,5.18
2019-03-10T04:31:48.676Z,5.21
2019-03-10T04:32:48.662Z,5.15
2019-03-10T04:33:48.657Z,5.14
2019-03-10T04:34:48.645Z,5.28
2019-03-10T04:35:48.636Z,5.21
2019-03-10T04:36:48.625Z,5.23
2019-03-10T04:37:48.617Z,5.23
2019-03-10T04:38:48.606Z,5.26
2019-03-10T04:39:48.601Z,5.23
2019-03-10T04:40:48.587Z,5.25
2019-03-10T04:41:48.581Z,5.36
2019-03-10T04:42:48.569Z,5.36
2019-03-10T04:43:48.563Z,5.44
2019-03-10T04:44:48.552Z,5.51
2019-03-10T04:45:48.541Z,5.48
2019-03-10T04:46:48.538Z,5.48
2019-03-10T04:47:48.531Z,5.53
2019-03-10T04:48:48.515Z,5.61
2019-03-10T04:49:48.505Z,5.53
2019-03-10T04:50:48.498Z,5.62
2019-03-10T04:51:48.486Z,5.57
2019-03-10T04:52:48.476Z,5.66
2019-03-10T04:53:48.471Z,5.65
2019-03-10T04:54:48.461Z,5.62
2019-03-10T04:55:48.449Z,5.64
2019-03-10T04:56:48.440Z,5.69
2019-03-10T04:57:48.430Z,5.59
2019-03-10T04:58:48.421Z,5.68
2019-03-10T04:59:48.414Z,5.62
2019-03-10T05:00:48.402Z,5.64
2019-03-10T05:01:48.399Z,5.66
2019-03-10T05:02:48.388Z,5.62
2019-03-10T05:03:48.375Z,5.71
2019-03-10T05:04:48.367Z,5.64
2019-03-10T05:05:48.357Z,5.75
2019-03-10T05:06:48.349Z,5.66
2019-03-10T05:07:48.340Z,5.68
2019-03-10T05:08:48.331Z,5.72
2019-03-10T05:09:48.321Z,5.69
2019-03-10T05:10:48.317Z,5.73
2019-03-10T05:11:48.307Z,5.71
2019-03-10T05:12:48.295Z,5.82
2019-03-10T05:13:48.287Z,5.86
2019-03-10T05:14:48.276Z,5.79
2019-03-10T05:15:48.267Z,5.80
2019-03-10T05:16:48.257Z,5.80
2019-03-10T05:17:48.251Z,5.75
2019-03-10T05:18:48.248Z,5.75
2019-03-10T05:19:48.234Z,5.82
2019-03-10T05:20:48.224Z,5.84
2019-03-10T05:21:48.211Z,5.80
2019-03-10T05:22:48.203Z,5.76
2019-03-10T05:23:48.215Z,5.84
2019-03-10T05:24:48.189Z,5.79
2019-03-10T05:25:48.178Z,5.76
2019-03-10T05:26:48.169Z,5.76
2019-03-10T05:27:48.166Z,5.75
2019-03-10T05:28:48.151Z,5.76
2019-03-10T05:29:48.139Z,5.71
2019-03-10T05:30:48.132Z,5.64
2019-03-10T05:33:59.293Z,5.62
2019-03-10T05:34:20.219Z,5.57
2019-03-10T05:36:13.597Z,5.54
2019-03-10T05:37:13.588Z,5.51
2019-03-10T05:39:06.971Z,5.47
2019-03-10T05:40:06.948Z,5.39
2019-03-10T05:42:00.335Z,5.36
2019-03-10T05:43:00.315Z,5.38
2019-03-10T05:44:53.196Z,5.33
2019-03-10T05:45:53.180Z,5.38
2019-03-10T05:47:46.056Z,5.36
2019-03-10T05:48:46.031Z,5.25
2019-03-10T05:50:38.909Z,5.41
2019-03-10T05:51:38.892Z,5.38
2019-03-10T05:53:32.287Z,5.43
2019-03-10T05:54:32.263Z,5.43
2019-03-10T05:56:25.144Z,5.44
2019-03-10T05:57:25.129Z,5.53
2019-03-10T05:59:18.524Z,5.57
2019-03-10T06:00:18.502Z,5.57
2019-03-10T06:02:11.907Z,5.59
2019-03-10T06:03:11.899Z,5.64
2019-03-10T06:05:06.213Z,5.66
2019-03-10T06:06:05.262Z,5.69
2019-03-10T06:07:58.648Z,5.64
2019-03-10T06:08:58.624Z,5.68
2019-03-10T06:10:52.006Z,5.64
2019-03-10T06:11:51.993Z,5.73
2019-03-10T06:12:51.986Z,5.65
2019-03-10T06:13:51.973Z,5.65
2019-03-10T06:14:51.965Z,5.68
2019-03-10T06:15:51.954Z,5.59
2019-03-10T06:16:51.947Z,5.62
2019-03-10T06:17:51.938Z,5.59
2019-03-10T06:18:51.928Z,5.59
2019-03-10T06:19:51.919Z,5.62
2019-03-10T06:20:51.916Z,5.61
2019-03-10T06:21:51.905Z,5.68
2019-03-10T06:22:51.892Z,5.65
2019-03-10T06:23:51.885Z,5.64
2019-03-10T06:24:51.876Z,5.62
2019-03-10T06:25:51.865Z,5.57
2019-03-10T06:26:51.859Z,5.62
2019-03-10T06:27:51.848Z,5.66
2019-03-10T06:28:51.843Z,5.71
2019-03-10T06:29:51.830Z,5.62
2019-03-10T06:30:51.825Z,5.68
2019-03-10T06:31:51.813Z,5.72
2019-03-10T06:32:51.805Z,5.84
2019-03-10T06:33:51.795Z,5.89
2019-03-10T06:34:51.786Z,5.93
2019-03-10T06:35:51.778Z,5.99
2019-03-10T06:36:51.772Z,6.04
2019-03-10T06:37:51.764Z,6.08
2019-03-10T06:38:51.750Z,6.11
2019-03-10T06:39:51.742Z,6.19
2019-03-10T06:40:51.734Z,6.26
2019-03-10T06:41:51.724Z,6.27
2019-03-10T06:42:51.717Z,6.41
2019-03-10T06:43:51.708Z,6.56
2019-03-10T06:44:51.698Z,6.69
2019-03-10T06:45:51.690Z,6.74
2019-03-10T06:46:51.681Z,6.72
2019-03-10T06:47:51.674Z,6.93
2019-03-10T06:48:51.664Z,6.95
2019-03-10T06:49:51.656Z,7.35
2019-03-10T06:50:51.648Z,7.61
2019-03-10T06:51:51.639Z,7.87
2019-03-10T06:52:51.633Z,7.83
2019-03-10T06:53:51.620Z,7.76
2019-03-10T06:54:51.614Z,7.80
2019-03-10T06:55:51.604Z,7.67
2019-03-10T06:56:51.593Z,7.70
2019-03-10T06:57:51.586Z,7.75
2019-03-10T06:58:51.581Z,7.58
2019-03-10T06:59:51.580Z,7.57
2019-03-10T07:00:51.568Z,7.50
2019-03-10T07:01:51.575Z,7.53
2019-03-10T07:02:51.546Z,7.63
2019-03-10T07:03:51.540Z,7.63
2019-03-10T07:04:51.530Z,7.77
2019-03-10T07:05:51.525Z,7.90
2019-03-10T07:06:51.503Z,8.00
2019-03-10T07:07:51.509Z,8.00
2019-03-10T07:08:51.499Z,7.90
2019-03-10T07:09:51.490Z,7.91
2019-03-10T07:10:51.482Z,7.97
2019-03-10T07:11:51.476Z,7.93
2019-03-10T07:12:51.470Z,7.90
2019-03-10T07:13:51.458Z,7.98
2019-03-10T07:14:51.452Z,8.03
2019-03-10T07:15:51.444Z,8.05
2019-03-10T07:16:51.436Z,7.98
2019-03-10T07:17:51.432Z,8.01
2019-03-10T07:18:51.421Z,7.97
2019-03-10T07:19:51.415Z,7.93
2019-03-10T07:20:51.406Z,7.90
2019-03-10T07:21:51.397Z,7.83
2019-03-10T07:22:51.393Z,7.85
2019-03-10T07:23:51.384Z,7.85
2019-03-10T07:24:51.374Z,7.82
2019-03-10T07:25:51.367Z,7.79
2019-03-10T07:26:51.359Z,7.85
2019-03-10T07:27:51.352Z,7.87
2019-03-10T07:28:51.344Z,7.76
2019-03-10T07:29:51.337Z,7.90
2019-03-10T07:30:51.327Z,7.90
2019-03-10T07:31:51.321Z,7.75
2019-03-10T07:32:51.315Z,7.75
2019-03-10T07:33:51.305Z,7.73
2019-03-10T07:34:51.301Z,7.69
2019-03-10T07:35:51.291Z,7.69
2019-03-10T07:36:51.282Z,7.72
2019-03-10T07:37:51.275Z,7.83
2019-03-10T07:38:51.295Z,7.80
2019-03-10T07:39:51.262Z,7.87
2019-03-10T07:40:51.251Z,7.88
2019-03-10T07:41:51.246Z,7.95
2019-03-10T07:42:51.236Z,8.01
2019-03-10T07:43:51.229Z,8.10
2019-03-10T07:44:51.221Z,8.15
2019-03-10T07:45:51.214Z,8.19
2019-03-10T07:46:51.206Z,8.23
2019-03-10T07:47:51.203Z,8.18
2019-03-10T07:48:51.192Z,8.30
2019-03-10T07:49:51.189Z,8.30
2019-03-10T07:50:51.178Z,8.34
2019-03-10T07:51:51.169Z,8.36
2019-03-10T07:52:51.162Z,8.42
2019-03-10T07:53:51.158Z,8.34
2019-03-10T07:54:51.149Z,8.31
2019-03-10T07:55:51.141Z,8.41
2019-03-10T07:56:51.133Z,8.37
2019-03-10T07:57:51.129Z,8.45
2019-03-10T07:58:51.119Z,8.49
2019-03-10T07:59:51.115Z,8.51
2019-03-10T08:00:51.110Z,8.70
2019-03-10T08:01:51.101Z,8.60
2019-03-10T08:02:51.090Z,8.67
2019-03-10T08:03:51.088Z,8.82
2019-03-10T08:04:51.077Z,8.61
2019-03-10T08:05:51.068Z,8.61
2019-03-10T08:06:51.062Z,8.78
2019-03-10T08:07:51.057Z,8.79
2019-03-10T08:08:51.050Z,8.78
2019-03-10T08:09:51.043Z,8.76
2019-03-10T08:10:51.032Z,8.84
2019-03-10T08:11:51.028Z,8.84
2019-03-10T08:12:51.021Z,8.82
2019-03-10T08:13:51.014Z,8.73
2019-03-10T08:14:51.006Z,8.87
2019-03-10T08:15:51.000Z,8.79
2019-03-10T08:16:50.994Z,8.85
2019-03-10T08:17:50.989Z,8.87
2019-03-10T08:18:50.976Z,8.79
2019-03-10T08:19:50.973Z,8.87
2019-03-10T08:20:50.965Z,8.99
2019-03-10T08:21:50.958Z,8.94
2019-03-10T08:22:50.950Z,8.89
2019-03-10T08:23:50.947Z,8.95
2019-03-10T08:24:50.937Z,8.91
2019-03-10T08:25:50.929Z,8.88
2019-03-10T08:26:50.923Z,8.88
2019-03-10T08:28:00.846Z,8.94
2019-03-10T08:28:50.910Z,8.89
2019-03-10T08:29:50.904Z,8.95
2019-03-10T08:30:50.900Z,9.11
2019-03-10T08:31:50.895Z,9.25
2019-03-10T08:32:50.883Z,9.19
2019-03-10T08:33:50.876Z,9.08
2019-03-10T08:34:50.873Z,9.10
2019-03-10T08:35:50.864Z,8.97
2019-03-10T08:36:50.858Z,9.11
2019-03-10T08:37:50.850Z,8.89
2019-03-10T08:38:50.847Z,8.95
2019-03-10T08:39:50.837Z,8.97
2019-03-10T08:40:50.830Z,9.00
2019-03-10T08:41:50.823Z,9.00
2019-03-10T08:42:50.845Z,9.10
2019-03-10T08:43:50.822Z,9.06
2019-03-10T08:44:50.805Z,9.11
2019-03-10T08:45:50.796Z,8.94
2019-03-10T08:46:50.798Z,8.89
2019-03-10T08:47:50.784Z,8.97
2019-03-10T08:48:50.776Z,8.94
2019-03-10T08:49:50.772Z,9.02
2019-03-10T08:50:50.764Z,8.97
2019-03-10T08:51:50.757Z,8.89
2019-03-10T08:52:50.749Z,8.97
2019-03-10T08:53:50.743Z,9.00
2019-03-10T08:54:50.739Z,9.11
2019-03-10T08:55:50.742Z,9.11
2019-03-10T08:56:50.723Z,9.14
2019-03-10T08:57:50.717Z,9.02
2019-03-10T08:58:50.714Z,9.11
2019-03-10T08:59:50.706Z,9.18
2019-03-10T09:00:50.697Z,9.28
2019-03-10T09:01:50.693Z,9.29
2019-03-10T09:02:50.689Z,9.26
2019-03-10T09:03:50.678Z,9.13
2019-03-10T09:04:50.671Z,9.18
2019-03-10T09:05:50.664Z,9.19
2019-03-10T09:06:50.660Z,9.34
2019-03-10T09:07:50.650Z,9.36
2019-03-10T09:08:50.648Z,9.40
2019-03-10T09:09:50.639Z,9.41
2019-03-10T09:10:50.636Z,9.37
2019-03-10T09:11:50.626Z,9.32
2019-03-10T09:12:50.620Z,9.37
2019-03-10T09:13:50.612Z,9.23
2019-03-10T09:14:50.607Z,9.28
2019-03-10T09:15:50.602Z,9.25
2019-03-10T09:16:50.594Z,9.26
2019-03-10T09:17:50.584Z,9.25
2019-03-10T09:18:50.583Z,9.19
2019-03-10T09:19:50.573Z,9.28
2019-03-10T09:20:50.569Z,9.28
2019-03-10T09:21:50.561Z,9.28
2019-03-10T09:22:50.555Z,9.28
2019-03-10T09:23:50.548Z,9.34
2019-03-10T09:24:50.543Z,9.32
2019-03-10T09:25:50.535Z,9.36
2019-03-10T09:26:50.533Z,9.47
2019-03-10T09:27:50.527Z,9.46
2019-03-10T09:28:50.515Z,9.54
2019-03-10T09:29:50.514Z,9.47
2019-03-10T09:30:50.503Z,9.59
2019-03-10T09:31:50.494Z,9.59
2019-03-10T09:32:50.489Z,9.69
2019-03-10T09:33:50.482Z,9.58
2019-03-10T09:34:50.476Z,9.59
2019-03-10T09:35:50.472Z,9.51
2019-03-10T09:36:50.465Z,9.65
2019-03-10T09:37:50.457Z,9.66
2019-03-10T09:38:50.450Z,9.68
2019-03-10T09:39:50.446Z,9.69
2019-03-10T09:40:50.440Z,9.68
2019-03-10T09:41:50.433Z,9.72
2019-03-10T09:42:50.429Z,9.84
2019-03-10T09:43:50.420Z,9.83
2019-03-10T09:44:50.415Z,9.95
2019-03-10T09:45:50.412Z,10.01
2019-03-10T09:46:50.401Z,10.01
2019-03-10T09:47:50.395Z,9.98
2019-03-10T09:48:50.393Z,10.13
2019-03-10T09:49:50.387Z,10.20
2019-03-10T09:50:50.377Z,10.17
2019-03-10T09:51:50.371Z,10.26
2019-03-10T09:52:50.366Z,10.16
2019-03-10T09:53:50.360Z,10.19
2019-03-10T09:54:50.352Z,10.28
2019-03-10T09:55:50.347Z,10.28
2019-03-10T09:56:50.341Z,10.22
2019-03-10T09:57:50.336Z,10.33
2019-03-10T09:58:50.330Z,10.33
2019-03-10T09:59:50.328Z,10.28
2019-03-10T10:00:50.318Z,10.28
2019-03-10T10:01:51.566Z,10.28
2019-03-10T10:02:50.307Z,10.23
2019-03-10T10:03:50.299Z,10.35
2019-03-10T10:04:50.297Z,10.38
2019-03-10T10:05:50.291Z,10.41
2019-03-10T10:06:50.282Z,10.54
2019-03-10T10:07:50.274Z,10.28
2019-03-10T10:08:50.272Z,10.25
2019-03-10T10:09:50.270Z,10.25
2019-03-10T10:10:50.260Z,10.25
2019-03-10T10:11:50.253Z,10.33
2019-03-10T10:12:50.249Z,10.37
2019-03-10T10:13:50.244Z,10.38
2019-03-10T10:14:50.236Z,10.26
2019-03-10T10:15:50.232Z,10.33
2019-03-10T10:16:50.229Z,10.23
2019-03-10T10:17:50.216Z,10.33
2019-03-10T10:18:50.213Z,10.26
2019-03-10T10:19:50.207Z,10.31
2019-03-10T10:20:50.226Z,10.25
2019-03-10T10:21:50.195Z,10.28
2019-03-10T10:22:50.191Z,10.26
2019-03-10T10:23:50.187Z,10.30
2019-03-10T10:24:50.179Z,10.23
2019-03-10T10:25:50.173Z,10.20
2019-03-10T10:26:50.175Z,10.25
2019-03-10T10:27:50.162Z,10.26
2019-03-10T10:28:50.157Z,10.31
2019-03-10T10:29:50.153Z,10.37
2019-03-10T10:30:50.147Z,10.48
2019-03-10T10:31:50.140Z,10.40
2019-03-10T10:32:50.136Z,10.51
2019-03-10T10:33:50.127Z,10.54
2019-03-10T10:34:50.122Z,10.49
2019-03-10T10:35:50.119Z,10.57
2019-03-10T10:36:50.112Z,10.57
2019-03-10T10:37:50.104Z,10.63
2019-03-10T10:38:50.100Z,10.51
2019-03-10T10:39:50.095Z,10.60
2019-03-10T10:40:50.089Z,10.60
2019-03-10T10:41:50.086Z,10.51
2019-03-10T10:42:50.080Z,10.54
2019-03-10T10:43:50.073Z,10.37
2019-03-10T10:44:50.066Z,10.38
2019-03-10T10:45:50.058Z,10.30
2019-03-10T10:46:50.059Z,10.28
2019-03-10T10:47:50.048Z,10.17
2019-03-10T10:48:50.059Z,10.15
2019-03-10T10:49:50.039Z,10.30
2019-03-10T10:50:50.034Z,10.12
2019-03-10T10:51:50.036Z,10.10
2019-03-10T10:52:50.025Z,10.20
2019-03-10T10:53:50.019Z,10.10
2019-03-10T10:54:50.074Z,9.99
2019-03-10T10:55:50.012Z,10.04
2019-03-10T10:56:50.000Z,10.12
2019-03-10T10:57:50.009Z,10.13
2019-03-10T10:58:49.989Z,10.01
2019-03-10T10:59:49.983Z,10.02
2019-03-10T11:00:49.973Z,10.02
2019-03-10T11:01:49.980Z,9.97
2019-03-10T11:02:49.965Z,9.94
2019-03-10T11:03:49.960Z,9.98
2019-03-10T11:04:49.957Z,9.98
2019-03-10T11:05:49.949Z,9.99
2019-03-10T11:06:49.944Z,10.09
2019-03-10T11:07:49.937Z,10.10
2019-03-10T11:08:49.935Z,10.12
2019-03-10T11:09:49.924Z,10.25
2019-03-10T11:10:49.922Z,10.17
2019-03-10T11:11:49.913Z,10.20
2019-03-10T11:12:49.909Z,10.33
2019-03-10T11:13:49.903Z,10.31
2019-03-10T11:14:49.901Z,10.22
2019-03-10T11:15:49.890Z,10.23
2019-03-10T11:16:49.887Z,10.30
2019-03-10T11:17:49.878Z,10.25
2019-03-10T11:18:49.876Z,10.26
2019-03-10T11:19:49.868Z,10.23
2019-03-10T11:20:49.860Z,10.23
2019-03-10T11:21:49.865Z,10.23
2019-03-10T11:22:49.851Z,10.22
2019-03-10T11:23:49.848Z,10.22
2019-03-10T11:24:49.841Z,10.13
2019-03-10T11:25:49.837Z,10.13
2019-03-10T11:26:49.828Z,9.83
2019-03-10T11:27:49.827Z,9.77
2019-03-10T11:28:49.818Z,9.68
2019-03-10T11:29:49.813Z,9.72
2019-03-10T11:30:49.806Z,9.69
2019-03-10T11:31:49.803Z,9.69
2019-03-10T11:32:49.797Z,9.68
2019-03-10T11:33:49.788Z,9.61
2019-03-10T11:34:49.784Z,9.58
2019-03-10T11:35:49.779Z,9.54
2019-03-10T11:36:50.703Z,9.59
2019-03-10T11:37:49.767Z,9.54
2019-03-10T11:38:49.763Z,9.44
2019-03-10T11:39:49.753Z,9.31
2019-03-10T11:40:49.750Z,9.36
2019-03-10T11:41:49.741Z,9.36
2019-03-10T11:42:49.738Z,9.25
2019-03-10T11:43:49.730Z,9.14
2019-03-10T11:44:49.727Z,9.13
2019-03-10T11:45:49.720Z,9.02
2019-03-10T11:46:49.713Z,9.14
2019-03-10T11:47:49.708Z,9.06
2019-03-10T11:48:49.702Z,9.13
2019-03-10T11:49:49.694Z,8.94
2019-03-10T11:50:49.688Z,8.97
2019-03-10T11:51:49.683Z,9.08
2019-03-10T11:52:49.682Z,9.16
2019-03-10T11:53:49.671Z,9.22
2019-03-10T11:54:49.666Z,9.23
2019-03-10T11:55:49.672Z,9.31
2019-03-10T11:56:49.653Z,9.21
2019-03-10T11:57:49.651Z,9.25
2019-03-10T11:58:49.642Z,9.08
2019-03-10T11:59:49.640Z,9.03
2019-03-10T12:00:49.637Z,9.13
2019-03-10T12:01:49.623Z,9.19
2019-03-10T12:02:49.616Z,9.18
2019-03-10T12:03:49.612Z,9.18
2019-03-10T12:04:49.604Z,9.18
2019-03-10T12:05:49.600Z,9.18
2019-03-10T12:06:49.592Z,9.04
2019-03-10T12:07:49.594Z,8.97
2019-03-10T12:08:49.584Z,9.00
2019-03-10T12:09:49.579Z,9.02
2019-03-10T12:10:49.568Z,8.92
2019-03-10T12:11:49.562Z,8.91
2019-03-10T12:12:49.555Z,8.91
2019-03-10T12:13:49.550Z,8.95
2019-03-10T12:14:49.549Z,8.92
2019-03-10T12:15:49.535Z,8.92
2019-03-10T12:16:49.530Z,8.88
2019-03-10T12:17:49.530Z,8.91
2019-03-10T12:18:49.517Z,8.84
2019-03-10T12:19:49.511Z,8.87
2019-03-10T12:20:49.505Z,8.82
2019-03-10T12:21:49.499Z,8.63
2019-03-10T12:22:49.494Z,8.66
2019-03-10T12:23:49.503Z,8.69
2019-03-10T12:24:49.495Z,8.63
2019-03-10T12:25:49.476Z,8.64
2019-03-10T12:26:49.470Z,8.71
2019-03-10T12:27:49.466Z,8.61
2019-03-10T12:28:49.476Z,8.67
2019-03-10T12:29:49.452Z,8.71
2019-03-10T12:30:49.439Z,8.82
2019-03-10T12:31:49.435Z,8.89
2019-03-10T12:32:49.428Z,8.94
2019-03-10T12:33:49.421Z,9.03
2019-03-10T12:34:49.421Z,8.99
2019-03-10T12:35:49.405Z,9.10
2019-03-10T12:36:49.509Z,9.03
2019-03-10T12:37:49.398Z,9.10
2019-03-10T12:38:49.389Z,9.11
2019-03-10T12:39:49.384Z,9.21
2019-03-10T12:40:49.379Z,9.28
2019-03-10T12:41:57.891Z,9.36
2019-03-10T12:42:49.365Z,9.29
2019-03-10T12:43:49.357Z,9.48
2019-03-10T12:44:49.642Z,9.58
2019-03-10T12:45:49.346Z,9.62
2019-03-10T12:46:49.339Z,9.80
2019-03-10T12:47:49.336Z,9.86
2019-03-10T12:48:49.329Z,9.97
2019-03-10T12:49:49.320Z,9.74
2019-03-10T12:50:49.319Z,9.56
2019-03-10T12:51:49.309Z,9.56
2019-03-10T12:52:49.304Z,9.62
2019-03-10T12:53:49.299Z,9.58
2019-03-10T12:54:49.294Z,9.66
2019-03-10T12:55:49.285Z,9.74
2019-03-10T12:56:49.282Z,9.87
2019-03-10T12:57:49.273Z,9.83
2019-03-10T12:58:49.272Z,9.83
2019-03-10T12:59:49.261Z,9.56
2019-03-10T13:00:49.258Z,9.50
2019-03-10T13:01:49.249Z,9.47
2019-03-10T13:02:49.247Z,9.55
2019-03-10T13:03:58.458Z,9.61
2019-03-10T13:04:49.239Z,9.56
2019-03-10T13:05:49.230Z,9.59
2019-03-10T13:06:49.222Z,9.66
2019-03-10T13:07:49.210Z,9.64
2019-03-10T13:08:49.210Z,9.66
2019-03-10T13:09:49.204Z,9.68
2019-03-10T13:10:49.203Z,9.56
2019-03-10T13:11:49.195Z,9.51
2019-03-10T13:12:49.207Z,9.51
2019-03-10T13:13:49.181Z,9.58
2019-03-10T13:14:58.923Z,9.55
2019-03-10T13:15:49.172Z,9.50
2019-03-10T13:16:49.201Z,9.43
2019-03-10T13:17:49.160Z,9.41
2019-03-10T13:18:49.154Z,9.39
2019-03-10T13:19:49.145Z,9.21
2019-03-10T13:20:49.143Z,9.11
2019-03-10T13:21:49.133Z,9.06
2019-03-10T13:22:49.129Z,8.97
2019-03-10T13:23:49.128Z,9.03
2019-03-10T13:24:49.117Z,8.97
2019-03-10T13:25:49.112Z,8.94
2019-03-10T13:26:49.104Z,8.84
2019-03-10T13:27:49.097Z,8.89
2019-03-10T13:28:49.095Z,8.88